sensor_id;sensor_type;location;lat;lon;timestamp;pressure;altitude;pressure_sealevel;temperature;humidity
13348;BME280;6743;49.934;9.138;2023-02-18T00:02:14;101197.03;;;11.58;100.00
13348;BME280;6743;49.934;9.138;2023-02-18T00:04:40;101207.50;;;11.60;100.00
13348;BME280;6743;49.934;9.138;2023-02-18T00:07:06;101204.84;;;11.60;100.00
13348;BME280;6743;49.934;9.138;2023-02-18T00:09:33;101177.78;;;11.47;100.00
13348;BME280;6743;49.934;9.138;2023-02-18T00:11:58;101205.00;;;11.58;100.00
13348;BME280;6743;49.934;9.138;2023-02-18T00:14:24;101197.03;;;11.58;100.00
13348;BME280;6743;49.934;9.138;2023-02-18T00:16:50;101212.81;;;11.60;100.00
13348;BME280;6743;49.934;9.138;2023-02-18T00:19:18;101203.03;;;11.60;100.00
13348;BME280;6743;49.934;9.138;2023-02-18T00:21:45;101203.88;;;11.61;100.00
13348;BME280;6743;49.934;9.138;2023-02-18T00:24:13;101212.81;;;11.60;100.00
13348;BME280;6743;49.934;9.138;2023-02-18T00:26:40;101212.00;;;11.59;100.00
13348;BME280;6743;49.934;9.138;2023-02-18T00:29:07;101206.53;;;11.61;100.00
13348;BME280;6743;49.934;9.138;2023-02-18T00:31:34;101203.03;;;11.60;100.00
13348;BME280;6743;49.934;9.138;2023-02-18T00:34:01;101182.28;;;11.46;100.00
13348;BME280;6743;49.934;9.138;2023-02-18T00:36:28;101210.44;;;11.57;100.00
13348;BME280;6743;49.934;9.138;2023-02-18T00:38:56;101206.28;;;11.54;100.00
13348;BME280;6743;49.934;9.138;2023-02-18T00:41:25;101183.25;;;11.45;100.00
13348;BME280;6743;49.934;9.138;2023-02-18T00:43:52;101191.31;;;11.53;100.00
13348;BME280;6743;49.934;9.138;2023-02-18T00:46:19;101186.16;;;11.52;100.00
13348;BME280;6743;49.934;9.138;2023-02-18T00:48:45;101188.09;;;11.50;100.00
13348;BME280;6743;49.934;9.138;2023-02-18T00:51:11;101189.09;;;11.49;100.00
13348;BME280;6743;49.934;9.138;2023-02-18T00:53:38;101179.50;;;11.38;100.00
13348;BME280;6743;49.934;9.138;2023-02-18T00:56:05;101178.94;;;11.34;100.00
13348;BME280;6743;49.934;9.138;2023-02-18T00:58:32;101201.72;;;11.47;100.00
13348;BME280;6743;49.934;9.138;2023-02-18T01:00:58;101188.56;;;11.45;100.00
13348;BME280;6743;49.934;9.138;2023-02-18T01:03:25;101199.34;;;11.43;100.00
13348;BME280;6743;49.934;9.138;2023-02-18T01:05:51;101192.34;;;11.42;100.00
13348;BME280;6743;49.934;9.138;2023-02-18T01:08:18;101198.81;;;11.40;100.00
13348;BME280;6743;49.934;9.138;2023-02-18T01:10:47;101196.28;;;11.38;100.00
13348;BME280;6743;49.934;9.138;2023-02-18T01:13:14;101189.87;;;11.31;100.00
13348;BME280;6743;49.934;9.138;2023-02-18T01:15:42;101200.06;;;11.36;100.00
13348;BME280;6743;49.934;9.138;2023-02-18T01:18:09;101192.22;;;11.34;100.00
13348;BME280;6743;49.934;9.138;2023-02-18T01:20:37;101192.41;;;11.33;100.00
13348;BME280;6743;49.934;9.138;2023-02-18T01:23:03;101195.06;;;11.33;100.00
13348;BME280;6743;49.934;9.138;2023-02-18T01:25:30;101197.72;;;11.33;100.00
13348;BME280;6743;49.934;9.138;2023-02-18T01:27:56;101194.22;;;11.32;100.00
13348;BME280;6743;49.934;9.138;2023-02-18T01:30:22;101184.56;;;11.31;100.00
13348;BME280;6743;49.934;9.138;2023-02-18T01:32:48;101182.91;;;11.30;100.00
13348;BME280;6743;49.934;9.138;2023-02-18T01:35:16;101182.91;;;11.30;100.00
13348;BME280;6743;49.934;9.138;2023-02-18T01:37:43;101171.44;;;11.30;100.00
13348;BME280;6743;49.934;9.138;2023-02-18T01:40:12;101173.25;;;11.29;100.00
13348;BME280;6743;49.934;9.138;2023-02-18T01:42:38;101180.38;;;11.29;100.00
13348;BME280;6743;49.934;9.138;2023-02-18T01:48:06;101177.88;;;11.27;100.00
13348;BME280;6743;49.934;9.138;2023-02-18T01:50:39;101170.06;;;11.26;100.00
13348;BME280;6743;49.934;9.138;2023-02-18T01:53:06;101170.22;;;11.24;100.00
13348;BME280;6743;49.934;9.138;2023-02-18T01:55:33;101167.00;;;11.21;100.00
13348;BME280;6743;49.934;9.138;2023-02-18T01:58:01;101170.22;;;11.24;100.00
13348;BME280;6743;49.934;9.138;2023-02-18T02:00:28;101171.19;;;11.23;100.00
13348;BME280;6743;49.934;9.138;2023-02-18T02:02:55;101173.00;;;11.23;100.00
13348;BME280;6743;49.934;9.138;2023-02-18T02:05:21;101180.13;;;11.22;100.00
13348;BME280;6743;49.934;9.138;2023-02-18T02:07:50;101167.00;;;11.21;100.00
13348;BME280;6743;49.934;9.138;2023-02-18T02:10:18;101155.53;;;11.20;100.00
13348;BME280;6743;49.934;9.138;2023-02-18T02:12:54;101160.84;;;11.20;100.00
13348;BME280;6743;49.934;9.138;2023-02-18T02:15:28;101155.69;;;11.19;100.00
13348;BME280;6743;49.934;9.138;2023-02-18T02:18:16;101156.69;;;11.18;100.00
13348;BME280;6743;49.934;9.138;2023-02-18T02:21:12;101150.53;;;11.17;100.00
13348;BME280;6743;49.934;9.138;2023-02-18T02:27:15;101148.84;;;11.16;100.00
13348;BME280;6743;49.934;9.138;2023-02-18T02:30:13;101149.69;;;11.17;100.00
13348;BME280;6743;49.934;9.138;2023-02-18T02:35:56;101150.66;;;11.16;100.00
13348;BME280;6743;49.934;9.138;2023-02-18T02:38:30;101151.50;;;11.16;100.00
13348;BME280;6743;49.934;9.138;2023-02-18T02:41:05;101132.13;;;11.06;100.00
13348;BME280;6743;49.934;9.138;2023-02-18T02:43:39;101141.84;;;11.15;100.00
13348;BME280;6743;49.934;9.138;2023-02-18T02:46:11;101149.97;;;11.14;100.00
13348;BME280;6743;49.934;9.138;2023-02-18T02:48:44;101144.50;;;11.15;100.00
13348;BME280;6743;49.934;9.138;2023-02-18T02:51:18;101141.03;;;11.15;100.00
13348;BME280;6743;49.934;9.138;2023-02-18T02:53:46;101141.84;;;11.15;100.00
13348;BME280;6743;49.934;9.138;2023-02-18T02:56:16;101150.66;;;11.16;100.00
13348;BME280;6743;49.934;9.138;2023-02-18T02:58:44;101145.50;;;11.14;100.00
13348;BME280;6743;49.934;9.138;2023-02-18T03:01:19;101143.53;;;11.16;100.00
13348;BME280;6743;49.934;9.138;2023-02-18T03:04:07;101130.25;;;11.16;100.00
13348;BME280;6743;49.934;9.138;2023-02-18T03:06:49;101133.06;;;11.15;100.00
13348;BME280;6743;49.934;9.138;2023-02-18T03:09:26;101124.25;;;11.14;100.00
13348;BME280;6743;49.934;9.138;2023-02-18T03:12:06;101119.09;;;11.13;100.00
13348;BME280;6743;49.934;9.138;2023-02-18T03:14:45;101111.28;;;11.11;100.00
13348;BME280;6743;49.934;9.138;2023-02-18T03:17:20;101112.97;;;11.12;100.00
13348;BME280;6743;49.934;9.138;2023-02-18T03:19:54;101111.41;;;11.10;100.00
13348;BME280;6743;49.934;9.138;2023-02-18T03:22:25;101096.38;;;11.00;100.00
13348;BME280;6743;49.934;9.138;2023-02-18T03:24:53;101098.16;;;11.10;100.00
13348;BME280;6743;49.934;9.138;2023-02-18T03:27:24;101104.44;;;11.09;100.00
13348;BME280;6743;49.934;9.138;2023-02-18T03:29:55;101121.91;;;11.11;100.00
13348;BME280;6743;49.934;9.138;2023-02-18T03:32:23;101119.25;;;11.11;100.00
13348;BME280;6743;49.934;9.138;2023-02-18T03:34:55;101118.28;;;11.12;100.00
13348;BME280;6743;49.934;9.138;2023-02-18T03:37:23;101116.59;;;11.11;100.00
13348;BME280;6743;49.934;9.138;2023-02-18T03:39:55;101126.38;;;11.11;100.00
13348;BME280;6743;49.934;9.138;2023-02-18T03:42:24;101124.56;;;11.11;100.00
13348;BME280;6743;49.934;9.138;2023-02-18T03:45:11;101124.56;;;11.11;100.00
13348;BME280;6743;49.934;9.138;2023-02-18T03:47:38;101123.84;;;11.09;100.00
13348;BME280;6743;49.934;9.138;2023-02-18T03:50:05;101114.06;;;11.10;100.00
13348;BME280;6743;49.934;9.138;2023-02-18T03:52:33;101110.44;;;11.11;100.00
13348;BME280;6743;49.934;9.138;2023-02-18T03:55:01;101101.06;;;11.06;100.00
13348;BME280;6743;49.934;9.138;2023-02-18T03:57:28;101095.94;;;11.05;100.00
13348;BME280;6743;49.934;9.138;2023-02-18T03:59:54;101107.66;;;11.12;100.00
13348;BME280;6743;49.934;9.138;2023-02-18T04:02:20;101111.41;;;11.10;100.00
13348;BME280;6743;49.934;9.138;2023-02-18T04:04:46;101104.28;;;11.10;100.00
13348;BME280;6743;49.934;9.138;2023-02-18T04:07:12;101113.09;;;11.11;100.00
13348;BME280;6743;49.934;9.138;2023-02-18T04:09:39;101111.56;;;11.08;100.00
13348;BME280;6743;49.934;9.138;2023-02-18T04:12:05;101111.69;;;11.06;100.00
13348;BME280;6743;49.934;9.138;2023-02-18T04:14:31;101114.34;;;11.06;100.00
13348;BME280;6743;49.934;9.138;2023-02-18T04:16:57;101119.00;;;11.04;100.00
13348;BME280;6743;49.934;9.138;2023-02-18T04:19:23;101126.00;;;11.05;100.00
13348;BME280;6743;49.934;9.138;2023-02-18T04:21:49;101112.84;;;11.04;100.00
13348;BME280;6743;49.934;9.138;2023-02-18T04:24:15;101116.19;;;11.06;100.00
13348;BME280;6743;49.934;9.138;2023-02-18T04:26:42;101117.19;;;11.05;100.00
13348;BME280;6743;49.934;9.138;2023-02-18T04:29:08;101113.56;;;11.06;100.00
13348;BME280;6743;49.934;9.138;2023-02-18T04:31:34;101113.56;;;11.06;100.00
13348;BME280;6743;49.934;9.138;2023-02-18T04:33:59;101108.37;;;11.04;100.00
13348;BME280;6743;49.934;9.138;2023-02-18T04:36:26;101112.00;;;11.03;100.00
13348;BME280;6743;49.934;9.138;2023-02-18T04:38:52;101104.31;;;11.00;100.00
13348;BME280;6743;49.934;9.138;2023-02-18T04:41:18;101114.41;;;10.97;100.00
13348;BME280;6743;49.934;9.138;2023-02-18T04:43:44;101113.03;;;10.93;100.00
13348;BME280;6743;49.934;9.138;2023-02-18T04:46:10;101105.63;;;10.87;100.00
13348;BME280;6743;49.934;9.138;2023-02-18T04:48:36;101091.84;;;10.83;100.00
13348;BME280;6743;49.934;9.138;2023-02-18T04:51:02;101092.97;;;10.81;100.00
13348;BME280;6743;49.934;9.138;2023-02-18T04:53:29;101098.56;;;10.78;100.00
13348;BME280;6743;49.934;9.138;2023-02-18T04:55:54;101089.06;;;10.75;100.00
13348;BME280;6743;49.934;9.138;2023-02-18T04:58:20;101081.37;;;10.72;100.00
13348;BME280;6743;49.934;9.138;2023-02-18T05:00:47;101084.22;;;10.71;100.00
13348;BME280;6743;49.934;9.138;2023-02-18T05:03:13;101084.50;;;10.68;100.00
13348;BME280;6743;49.934;9.138;2023-02-18T05:05:39;101081.97;;;10.66;100.00
13348;BME280;6743;49.934;9.138;2023-02-18T05:08:06;101082.28;;;10.63;100.00
13348;BME280;6743;49.934;9.138;2023-02-18T05:10:33;101088.44;;;10.63;100.00
13348;BME280;6743;49.934;9.138;2023-02-18T05:12:59;101092.91;;;10.63;100.00
13348;BME280;6743;49.934;9.138;2023-02-18T05:15:25;101092.91;;;10.63;100.00
13348;BME280;6743;49.934;9.138;2023-02-18T05:17:51;101094.72;;;10.62;100.00
13348;BME280;6743;49.934;9.138;2023-02-18T05:20:18;101097.38;;;10.62;100.00
13348;BME280;6743;49.934;9.138;2023-02-18T05:22:43;101093.75;;;10.63;100.00
13348;BME280;6743;49.934;9.138;2023-02-18T05:25:09;101093.88;;;10.62;100.00
13348;BME280;6743;49.934;9.138;2023-02-18T05:27:35;101088.69;;;10.60;100.00
13348;BME280;6743;49.934;9.138;2023-02-18T05:30:01;101079.06;;;10.59;100.00
13348;BME280;6743;49.934;9.138;2023-02-18T05:32:27;101085.34;;;10.58;100.00
13348;BME280;6743;49.934;9.138;2023-02-18T05:34:54;101076.56;;;10.58;100.00
13348;BME280;6743;49.934;9.138;2023-02-18T05:37:20;101065.25;;;10.56;100.00
13348;BME280;6743;49.934;9.138;2023-02-18T05:39:46;101066.25;;;10.55;100.00
13348;BME280;6743;49.934;9.138;2023-02-18T05:42:12;101058.56;;;10.52;100.00
13348;BME280;6743;49.934;9.138;2023-02-18T05:44:38;101037.66;;;10.39;100.00
13348;BME280;6743;49.934;9.138;2023-02-18T05:47:05;101047.41;;;10.48;100.00
13348;BME280;6743;49.934;9.138;2023-02-18T05:49:33;101052.03;;;10.46;100.00
13348;BME280;6743;49.934;9.138;2023-02-18T05:51:59;101046.84;;;10.45;100.00
13348;BME280;6743;49.934;9.138;2023-02-18T05:54:26;101051.50;;;10.43;100.00
13348;BME280;6743;49.934;9.138;2023-02-18T05:56:53;101058.47;;;10.44;100.00
13348;BME280;6743;49.934;9.138;2023-02-18T05:59:19;101059.28;;;10.44;100.00
13348;BME280;6743;49.934;9.138;2023-02-18T06:01:46;101073.25;;;10.46;100.00
13348;BME280;6743;49.934;9.138;2023-02-18T06:04:13;101062.50;;;10.48;100.00
13348;BME280;6743;49.934;9.138;2023-02-18T06:06:39;101074.66;;;10.50;100.00
13348;BME280;6743;49.934;9.138;2023-02-18T06:09:06;101089.28;;;10.54;100.00
13348;BME280;6743;49.934;9.138;2023-02-18T06:11:33;101091.81;;;10.56;100.00
13348;BME280;6743;49.934;9.138;2023-02-18T06:13:59;101082.41;;;10.61;100.00
13348;BME280;6743;49.934;9.138;2023-02-18T06:16:25;101086.62;;;10.64;100.00
13348;BME280;6743;49.934;9.138;2023-02-18T06:18:51;101083.97;;;10.64;100.00
13348;BME280;6743;49.934;9.138;2023-02-18T06:21:17;101080.28;;;10.65;100.00
13348;BME280;6743;49.934;9.138;2023-02-18T06:23:43;101076.84;;;10.64;100.00
13348;BME280;6743;49.934;9.138;2023-02-18T06:26:10;101075.00;;;10.65;100.00
13348;BME280;6743;49.934;9.138;2023-02-18T06:28:36;101075.81;;;10.65;100.00
13348;BME280;6743;49.934;9.138;2023-02-18T06:31:03;101070.38;;;10.67;100.00
13348;BME280;6743;49.934;9.138;2023-02-18T06:33:29;101068.19;;;10.62;100.00
13348;BME280;6743;49.934;9.138;2023-02-18T06:35:56;101074.56;;;10.70;100.00
13348;BME280;6743;49.934;9.138;2023-02-18T06:38:22;101048.66;;;10.54;100.00
13348;BME280;6743;49.934;9.138;2023-02-18T06:40:48;101078.91;;;10.71;100.00
13348;BME280;6743;49.934;9.138;2023-02-18T06:43:15;101076.91;;;10.73;100.00
13348;BME280;6743;49.934;9.138;2023-02-18T06:45:41;101078.59;;;10.74;100.00
13348;BME280;6743;49.934;9.138;2023-02-18T06:48:07;101094.25;;;10.77;100.00
13348;BME280;6743;49.934;9.138;2023-02-18T06:50:33;101091.97;;;10.82;100.00
13348;BME280;6743;49.934;9.138;2023-02-18T06:52:59;101098.97;;;10.83;100.00
13348;BME280;6743;49.934;9.138;2023-02-18T06:55:24;101074.94;;;10.84;100.00
13348;BME280;6743;49.934;9.138;2023-02-18T06:57:50;101081.63;;;10.88;100.00
13348;BME280;6743;49.934;9.138;2023-02-18T07:00:18;101083.31;;;10.80;100.00
13348;BME280;6743;49.934;9.138;2023-02-18T07:02:44;101079.09;;;10.87;100.00
13348;BME280;6743;49.934;9.138;2023-02-18T07:05:10;101094.19;;;10.86;100.00
13348;BME280;6743;49.934;9.138;2023-02-18T07:07:37;101100.34;;;10.87;100.00
13348;BME280;6743;49.934;9.138;2023-02-18T07:10:04;101074.25;;;10.82;100.00
13348;BME280;6743;49.934;9.138;2023-02-18T07:12:31;101095.03;;;10.87;100.00
13348;BME280;6743;49.934;9.138;2023-02-18T07:14:58;101076.19;;;10.80;100.00
13348;BME280;6743;49.934;9.138;2023-02-18T07:17:25;101078.44;;;10.85;100.00
13348;BME280;6743;49.934;9.138;2023-02-18T07:19:52;101072.94;;;10.86;100.00
13348;BME280;6743;49.934;9.138;2023-02-18T07:22:17;101060.41;;;10.79;100.00
13348;BME280;6743;49.934;9.138;2023-02-18T07:24:43;101070.47;;;10.85;100.00
13348;BME280;6743;49.934;9.138;2023-02-18T07:27:09;101068.78;;;10.84;100.00
13348;BME280;6743;49.934;9.138;2023-02-18T07:29:35;101087.38;;;10.84;100.00
13348;BME280;6743;49.934;9.138;2023-02-18T07:32:01;101074.94;;;10.84;100.00
13348;BME280;6743;49.934;9.138;2023-02-18T07:34:28;101072.13;;;10.86;100.00
13348;BME280;6743;49.934;9.138;2023-02-18T07:36:54;101077.28;;;10.87;100.00
13348;BME280;6743;49.934;9.138;2023-02-18T07:39:20;101061.34;;;10.87;100.00
13348;BME280;6743;49.934;9.138;2023-02-18T07:41:46;101063.72;;;10.90;100.00
13348;BME280;6743;49.934;9.138;2023-02-18T07:44:12;101070.41;;;10.94;100.00
13348;BME280;6743;49.934;9.138;2023-02-18T07:46:39;101065.78;;;10.96;100.00
13348;BME280;6743;49.934;9.138;2023-02-18T07:49:05;101068.31;;;10.98;100.00
13348;BME280;6743;49.934;9.138;2023-02-18T07:51:32;101067.31;;;10.99;100.00
13348;BME280;6743;49.934;9.138;2023-02-18T07:53:58;101069.66;;;11.02;100.00
13348;BME280;6743;49.934;9.138;2023-02-18T07:56:23;101074.00;;;11.03;100.00
13348;BME280;6743;49.934;9.138;2023-02-18T07:58:49;101076.50;;;11.04;100.00
13348;BME280;6743;49.934;9.138;2023-02-18T08:01:15;101072.72;;;11.07;100.00
13348;BME280;6743;49.934;9.138;2023-02-18T08:03:42;101075.22;;;11.09;100.00
13348;BME280;6743;49.934;9.138;2023-02-18T08:06:18;101068.78;;;11.11;100.00
13348;BME280;6743;49.934;9.138;2023-02-18T08:08:46;101065.28;;;11.11;100.00
13348;BME280;6743;49.934;9.138;2023-02-18T08:11:12;101063.47;;;11.11;100.00
13348;BME280;6743;49.934;9.138;2023-02-18T08:13:38;101056.34;;;11.12;100.00
13348;BME280;6743;49.934;9.138;2023-02-18T08:16:04;101056.34;;;11.12;100.00
13348;BME280;6743;49.934;9.138;2023-02-18T08:18:30;101045.72;;;11.12;100.00
13348;BME280;6743;49.934;9.138;2023-02-18T08:20:57;101025.66;;;10.99;100.00
13348;BME280;6743;49.934;9.138;2023-02-18T08:23:23;101050.19;;;11.11;100.00
13348;BME280;6743;49.934;9.138;2023-02-18T08:25:52;101041.41;;;11.11;100.00
13348;BME280;6743;49.934;9.138;2023-02-18T08:28:22;101043.91;;;11.12;100.00
13348;BME280;6743;49.934;9.138;2023-02-18T08:30:50;101031.62;;;11.11;100.00
13348;BME280;6743;49.934;9.138;2023-02-18T08:33:16;101023.09;;;11.07;100.00
13348;BME280;6743;49.934;9.138;2023-02-18T08:35:43;101028.97;;;11.11;100.00
13348;BME280;6743;49.934;9.138;2023-02-18T08:38:10;101036.78;;;11.13;100.00
13348;BME280;6743;49.934;9.138;2023-02-18T08:40:36;101012.09;;;11.02;100.00
13348;BME280;6743;49.934;9.138;2023-02-18T08:43:03;101042.75;;;11.15;100.00
13348;BME280;6743;49.934;9.138;2023-02-18T08:45:28;101043.44;;;11.17;100.00
13348;BME280;6743;49.934;9.138;2023-02-18T08:47:55;101039.97;;;11.16;100.00
13348;BME280;6743;49.934;9.138;2023-02-18T08:50:20;101063.72;;;11.18;100.00
13348;BME280;6743;49.934;9.138;2023-02-18T08:52:50;101048.62;;;11.18;100.00
13348;BME280;6743;49.934;9.138;2023-02-18T08:55:16;101056.28;;;11.21;100.00
13348;BME280;6743;49.934;9.138;2023-02-18T08:57:45;101071.37;;;11.21;100.00
13348;BME280;6743;49.934;9.138;2023-02-18T09:00:13;101084.50;;;11.22;100.00
13348;BME280;6743;49.934;9.138;2023-02-18T09:02:39;101088.97;;;11.22;100.00
13348;BME280;6743;49.934;9.138;2023-02-18T09:05:05;101089.69;;;11.24;100.00
13348;BME280;6743;49.934;9.138;2023-02-18T09:07:32;101076.53;;;11.22;100.00
13348;BME280;6743;49.934;9.138;2023-02-18T09:09:58;101082.41;;;11.26;100.00
13348;BME280;6743;49.934;9.138;2023-02-18T09:12:24;101102.69;;;11.27;100.00
13348;BME280;6743;49.934;9.138;2023-02-18T09:14:50;101088.25;;;11.29;100.00
13348;BME280;6743;49.934;9.138;2023-02-18T09:17:16;101089.09;;;11.30;100.00
13348;BME280;6743;49.934;9.138;2023-02-18T09:19:42;101091.75;;;11.30;100.00
13348;BME280;6743;49.934;9.138;2023-02-18T09:22:08;101097.00;;;11.39;100.00
13348;BME280;6743;49.934;9.138;2023-02-18T09:24:36;101097.53;;;11.43;100.00
13348;BME280;6743;49.934;9.138;2023-02-18T09:27:03;101087.44;;;11.47;100.00
13348;BME280;6743;49.934;9.138;2023-02-18T09:29:29;101079.72;;;11.53;100.00
13348;BME280;6743;49.934;9.138;2023-02-18T09:31:55;101100.81;;;11.55;100.00
13348;BME280;6743;49.934;9.138;2023-02-18T09:34:25;101119.94;;;11.58;100.00
13348;BME280;6743;49.934;9.138;2023-02-18T09:36:50;101111.00;;;11.59;100.00
13348;BME280;6743;49.934;9.138;2023-02-18T09:39:16;101089.88;;;11.58;100.00
13348;BME280;6743;49.934;9.138;2023-02-18T09:41:46;101075.91;;;11.56;100.00
13348;BME280;6743;49.934;9.138;2023-02-18T09:44:17;101088.19;;;11.57;100.00
13348;BME280;6743;49.934;9.138;2023-02-18T09:46:48;101124.56;;;11.56;100.00
13348;BME280;6743;49.934;9.138;2023-02-18T09:49:16;101075.75;;;11.57;100.00
13348;BME280;6743;49.934;9.138;2023-02-18T09:51:44;101081.91;;;11.58;100.00
13348;BME280;6743;49.934;9.138;2023-02-18T09:54:14;101061.47;;;11.58;100.00
13348;BME280;6743;49.934;9.138;2023-02-18T09:56:42;101054.19;;;11.60;100.00
13348;BME280;6743;49.934;9.138;2023-02-18T09:59:13;101059.19;;;11.63;100.00
13348;BME280;6743;49.934;9.138;2023-02-18T10:01:42;101057.22;;;11.65;100.00
13348;BME280;6743;49.934;9.138;2023-02-18T10:04:15;101038.78;;;11.64;100.00
13348;BME280;6743;49.934;9.138;2023-02-18T10:06:44;101054.09;;;11.70;100.00
13348;BME280;6743;49.934;9.138;2023-02-18T10:09:18;101061.94;;;11.71;100.00
13348;BME280;6743;49.934;9.138;2023-02-18T10:11:47;101061.78;;;11.73;100.00
13348;BME280;6743;49.934;9.138;2023-02-18T10:14:14;101069.75;;;11.73;100.00
13348;BME280;6743;49.934;9.138;2023-02-18T10:16:42;101075.06;;;11.73;100.00
13348;BME280;6743;49.934;9.138;2023-02-18T10:19:22;101067.94;;;11.73;100.00
13348;BME280;6743;49.934;9.138;2023-02-18T10:21:52;101072.13;;;11.76;100.00
13348;BME280;6743;49.934;9.138;2023-02-18T10:24:26;101064.34;;;11.74;100.00
13348;BME280;6743;49.934;9.138;2023-02-18T10:26:56;101077.63;;;11.74;100.00
13348;BME280;6743;49.934;9.138;2023-02-18T10:29:23;101089.75;;;11.77;100.00
13348;BME280;6743;49.934;9.138;2023-02-18T10:31:53;101077.16;;;11.79;100.00
13348;BME280;6743;49.934;9.138;2023-02-18T10:34:29;101087.66;;;11.80;100.00
13348;BME280;6743;49.934;9.138;2023-02-18T10:37:10;101081.16;;;11.83;100.00
13348;BME280;6743;49.934;9.138;2023-02-18T10:39:55;101083.69;;;11.84;100.00
13348;BME280;6743;49.934;9.138;2023-02-18T10:42:31;101066.75;;;11.86;100.00
13348;BME280;6743;49.934;9.138;2023-02-18T10:45:10;101081.56;;;11.88;100.00
13348;BME280;6743;49.934;9.138;2023-02-18T10:47:48;101058.16;;;11.92;100.00
13348;BME280;6743;49.934;9.138;2023-02-18T10:50:21;101031.88;;;11.89;100.00
13348;BME280;6743;49.934;9.138;2023-02-18T10:52:51;101052.91;;;12.00;100.00
13348;BME280;6743;49.934;9.138;2023-02-18T10:55:33;101049.41;;;11.99;100.00
13348;BME280;6743;49.934;9.138;2023-02-18T10:57:59;101087.84;;;12.05;100.00
13348;BME280;6743;49.934;9.138;2023-02-18T11:00:26;101046.75;;;11.99;100.00
13348;BME280;6743;49.934;9.138;2023-02-18T11:03:13;101042.19;;;12.09;100.00
13348;BME280;6743;49.934;9.138;2023-02-18T11:05:41;101044.50;;;12.12;100.00
13348;BME280;6743;49.934;9.138;2023-02-18T11:08:10;101040.72;;;12.15;100.00
13348;BME280;6743;49.934;9.138;2023-02-18T11:10:41;101045.88;;;12.16;100.00
13348;BME280;6743;49.934;9.138;2023-02-18T11:13:09;101039.72;;;12.16;100.00
13348;BME280;6743;49.934;9.138;2023-02-18T11:15:37;101031.06;;;12.14;100.00
13348;BME280;6743;49.934;9.138;2023-02-18T11:18:12;101033.72;;;12.14;100.00
13348;BME280;6743;49.934;9.138;2023-02-18T11:20:39;101032.59;;;12.16;100.00
13348;BME280;6743;49.934;9.138;2023-02-18T11:23:17;101043.06;;;12.18;100.00
13348;BME280;6743;49.934;9.138;2023-02-18T11:25:56;101025.59;;;12.15;100.00
13348;BME280;6743;49.934;9.138;2023-02-18T11:28:28;101024.75;;;12.15;100.00
13348;BME280;6743;49.934;9.138;2023-02-18T11:30:57;101034.56;;;12.14;100.00
13348;BME280;6743;49.934;9.138;2023-02-18T11:33:31;101012.59;;;12.12;100.00
13348;BME280;6743;49.934;9.138;2023-02-18T11:36:03;101011.91;;;12.10;100.00
13348;BME280;6743;49.934;9.138;2023-02-18T11:38:35;101019.75;;;12.12;100.00
13348;BME280;6743;49.934;9.138;2023-02-18T11:41:05;101014.56;;;12.10;100.00
13348;BME280;6743;49.934;9.138;2023-02-18T11:43:32;101009.44;;;12.09;100.00
13348;BME280;6743;49.934;9.138;2023-02-18T11:46:10;101009.44;;;12.09;100.00
13348;BME280;6743;49.934;9.138;2023-02-18T11:48:36;100994.53;;;11.98;100.00
13348;BME280;6743;49.934;9.138;2023-02-18T11:51:02;101006.00;;;12.16;100.00
13348;BME280;6743;49.934;9.138;2023-02-18T11:53:31;100992.50;;;12.18;100.00
13348;BME280;6743;49.934;9.138;2023-02-18T11:56:00;100993.03;;;12.21;100.00
13348;BME280;6743;49.934;9.138;2023-02-18T11:58:33;100991.72;;;12.26;100.00
13348;BME280;6743;49.934;9.138;2023-02-18T12:01:02;100992.72;;;12.24;100.00
13348;BME280;6743;49.934;9.138;2023-02-18T12:03:37;100972.47;;;12.32;100.00
13348;BME280;6743;49.934;9.138;2023-02-18T12:06:10;100971.47;;;12.33;100.00
13348;BME280;6743;49.934;9.138;2023-02-18T12:08:46;100965.81;;;12.28;100.00
13348;BME280;6743;49.934;9.138;2023-02-18T12:11:23;100983.75;;;12.26;100.00
13348;BME280;6743;49.934;9.138;2023-02-18T12:13:54;100981.56;;;12.21;100.00
13348;BME280;6743;49.934;9.138;2023-02-18T12:16:26;100983.03;;;12.15;100.00
13348;BME280;6743;49.934;9.138;2023-02-18T12:19:08;100964.50;;;12.06;100.00
13348;BME280;6743;49.934;9.138;2023-02-18T12:21:48;100958.69;;;12.02;100.00
13348;BME280;6743;49.934;9.138;2023-02-18T12:24:30;100945.00;;;11.97;100.00
13348;BME280;6743;49.934;9.138;2023-02-18T12:27:09;100944.34;;;11.95;100.00
13348;BME280;6743;49.934;9.138;2023-02-18T12:29:56;100938.50;;;11.92;100.00
13348;BME280;6743;49.934;9.138;2023-02-18T12:32:34;100942.31;;;11.89;100.00
13348;BME280;6743;49.934;9.138;2023-02-18T12:35:14;100940.78;;;11.87;100.00
13348;BME280;6743;49.934;9.138;2023-02-18T12:38:09;100908.25;;;11.67;100.00
13348;BME280;6743;49.934;9.138;2023-02-18T12:40:49;100940.94;;;11.85;100.00
13348;BME280;6743;49.934;9.138;2023-02-18T12:43:23;100922.50;;;11.83;100.00
13348;BME280;6743;49.934;9.138;2023-02-18T12:46:18;100923.31;;;11.84;100.00
13348;BME280;6743;49.934;9.138;2023-02-18T12:49:04;100920.00;;;11.82;100.00
13348;BME280;6743;49.934;9.138;2023-02-18T12:51:48;100913.88;;;11.90;100.00
13348;BME280;6743;49.934;9.138;2023-02-18T12:54:30;100894.47;;;11.97;100.00
13348;BME280;6743;49.934;9.138;2023-02-18T12:57:33;100899.69;;;12.07;100.00
13348;BME280;6743;49.934;9.138;2023-02-18T13:00:27;100904.91;;;12.24;100.00
13348;BME280;6743;49.934;9.138;2023-02-18T13:03:19;100905.97;;;12.40;100.00
13348;BME280;6743;49.934;9.138;2023-02-18T13:05:56;100916.53;;;12.57;100.00
13348;BME280;6743;49.934;9.138;2023-02-18T13:08:35;100930.53;;;12.68;100.00
13348;BME280;6743;49.934;9.138;2023-02-18T13:11:21;100931.38;;;12.68;100.00
13348;BME280;6743;49.934;9.138;2023-02-18T13:13:56;100924.72;;;12.64;100.00